sensor_id;sensor_type;location;lat;lon;timestamp;temperature;humidity
75155;HTU21D;63735;44.730;37.818;2023-05-07T00:00:04;17.74;71.05
75155;HTU21D;63735;44.730;37.818;2023-05-07T00:02:34;17.68;71.27
75155;HTU21D;63735;44.730;37.818;2023-05-07T00:05:00;17.65;71.32
75155;HTU21D;63735;44.730;37.818;2023-05-07T00:07:27;17.62;71.55
75155;HTU21D;63735;44.730;37.818;2023-05-07T00:09:53;17.54;71.55
75155;HTU21D;63735;44.730;37.818;2023-05-07T00:12:19;17.47;71.67
75155;HTU21D;63735;44.730;37.818;2023-05-07T00:14:45;17.45;71.79
75155;HTU21D;63735;44.730;37.818;2023-05-07T00:17:11;17.38;71.93
75155;HTU21D;63735;44.730;37.818;2023-05-07T00:19:37;17.33;72.02
75155;HTU21D;63735;44.730;37.818;2023-05-07T00:22:03;17.28;72.00
75155;HTU21D;63735;44.730;37.818;2023-05-07T00:24:29;17.26;71.96
75155;HTU21D;63735;44.730;37.818;2023-05-07T00:26:55;17.23;71.95
75155;HTU21D;63735;44.730;37.818;2023-05-07T00:29:21;17.23;71.90
75155;HTU21D;63735;44.730;37.818;2023-05-07T00:31:46;17.22;71.88
75155;HTU21D;63735;44.730;37.818;2023-05-07T00:34:14;17.18;71.88
75155;HTU21D;63735;44.730;37.818;2023-05-07T00:36:40;17.17;71.84
75155;HTU21D;63735;44.730;37.818;2023-05-07T00:39:06;17.13;71.92
75155;HTU21D;63735;44.730;37.818;2023-05-07T00:41:32;17.08;71.90
75155;HTU21D;63735;44.730;37.818;2023-05-07T00:43:58;17.06;71.90
75155;HTU21D;63735;44.730;37.818;2023-05-07T00:46:24;17.04;71.90
75155;HTU21D;63735;44.730;37.818;2023-05-07T00:48:51;17.00;71.96
75155;HTU21D;63735;44.730;37.818;2023-05-07T00:51:17;17.03;71.99
75155;HTU21D;63735;44.730;37.818;2023-05-07T00:53:44;16.98;71.93
75155;HTU21D;63735;44.730;37.818;2023-05-07T00:56:11;16.93;71.84
75155;HTU21D;63735;44.730;37.818;2023-05-07T00:58:37;16.87;72.04
75155;HTU21D;63735;44.730;37.818;2023-05-07T01:01:03;16.88;72.01
75155;HTU21D;63735;44.730;37.818;2023-05-07T01:03:29;16.88;71.86
75155;HTU21D;63735;44.730;37.818;2023-05-07T01:05:57;16.81;71.84
75155;HTU21D;63735;44.730;37.818;2023-05-07T01:08:24;16.77;71.84
75155;HTU21D;63735;44.730;37.818;2023-05-07T01:10:52;16.73;71.85
75155;HTU21D;63735;44.730;37.818;2023-05-07T01:13:19;16.66;71.84
75155;HTU21D;63735;44.730;37.818;2023-05-07T01:15:46;16.60;71.87
75155;HTU21D;63735;44.730;37.818;2023-05-07T01:18:12;16.54;71.93
75155;HTU21D;63735;44.730;37.818;2023-05-07T01:20:38;16.48;71.99
75155;HTU21D;63735;44.730;37.818;2023-05-07T01:23:06;16.40;72.17
75155;HTU21D;63735;44.730;37.818;2023-05-07T01:25:33;16.35;72.31
75155;HTU21D;63735;44.730;37.818;2023-05-07T01:28:01;16.30;72.50
75155;HTU21D;63735;44.730;37.818;2023-05-07T01:30:31;16.27;72.56
75155;HTU21D;63735;44.730;37.818;2023-05-07T01:33:08;16.17;72.79
75155;HTU21D;63735;44.730;37.818;2023-05-07T01:35:39;16.11;72.94
75155;HTU21D;63735;44.730;37.818;2023-05-07T01:38:06;16.04;73.09
75155;HTU21D;63735;44.730;37.818;2023-05-07T01:40:34;15.97;73.35
75155;HTU21D;63735;44.730;37.818;2023-05-07T01:43:03;15.88;73.71
75155;HTU21D;63735;44.730;37.818;2023-05-07T01:45:30;15.77;74.08
75155;HTU21D;63735;44.730;37.818;2023-05-07T01:47:57;15.70;74.92
75155;HTU21D;63735;44.730;37.818;2023-05-07T01:50:24;15.53;75.03
75155;HTU21D;63735;44.730;37.818;2023-05-07T01:52:51;15.39;75.99
75155;HTU21D;63735;44.730;37.818;2023-05-07T01:55:17;15.27;76.46
75155;HTU21D;63735;44.730;37.818;2023-05-07T01:57:44;15.16;77.00
75155;HTU21D;63735;44.730;37.818;2023-05-07T02:00:10;15.07;77.80
75155;HTU21D;63735;44.730;37.818;2023-05-07T02:02:42;14.97;78.41
75155;HTU21D;63735;44.730;37.818;2023-05-07T02:05:18;14.92;78.75
75155;HTU21D;63735;44.730;37.818;2023-05-07T02:07:48;14.86;79.25
75155;HTU21D;63735;44.730;37.818;2023-05-07T02:10:15;14.83;79.57
75155;HTU21D;63735;44.730;37.818;2023-05-07T02:12:41;14.84;79.77
75155;HTU21D;63735;44.730;37.818;2023-05-07T02:15:08;14.81;79.78
75155;HTU21D;63735;44.730;37.818;2023-05-07T02:17:34;14.75;79.98
75155;HTU21D;63735;44.730;37.818;2023-05-07T02:20:02;14.73;80.07
75155;HTU21D;63735;44.730;37.818;2023-05-07T02:22:29;14.72;80.09
75155;HTU21D;63735;44.730;37.818;2023-05-07T02:24:55;14.71;80.23
75155;HTU21D;63735;44.730;37.818;2023-05-07T02:27:21;14.69;80.40
75155;HTU21D;63735;44.730;37.818;2023-05-07T02:29:47;14.66;80.43
75155;HTU21D;63735;44.730;37.818;2023-05-07T02:32:13;14.63;80.48
75155;HTU21D;63735;44.730;37.818;2023-05-07T02:34:40;14.60;80.74
75155;HTU21D;63735;44.730;37.818;2023-05-07T02:37:05;14.55;80.89
75155;HTU21D;63735;44.730;37.818;2023-05-07T02:39:31;14.50;81.27
75155;HTU21D;63735;44.730;37.818;2023-05-07T02:41:57;14.44;81.52
75155;HTU21D;63735;44.730;37.818;2023-05-07T02:44:24;14.39;81.76
75155;HTU21D;63735;44.730;37.818;2023-05-07T02:46:51;14.38;81.88
75155;HTU21D;63735;44.730;37.818;2023-05-07T02:49:17;14.34;82.03
75155;HTU21D;63735;44.730;37.818;2023-05-07T02:51:43;14.30;82.07
75155;HTU21D;63735;44.730;37.818;2023-05-07T02:54:16;14.26;82.26
75155;HTU21D;63735;44.730;37.818;2023-05-07T02:56:43;14.23;82.45
75155;HTU21D;63735;44.730;37.818;2023-05-07T02:59:09;14.23;82.54
75155;HTU21D;63735;44.730;37.818;2023-05-07T03:01:38;14.26;82.34
75155;HTU21D;63735;44.730;37.818;2023-05-07T03:04:06;14.28;82.33
75155;HTU21D;63735;44.730;37.818;2023-05-07T03:06:32;14.27;81.89
75155;HTU21D;63735;44.730;37.818;2023-05-07T03:08:58;14.30;81.85
75155;HTU21D;63735;44.730;37.818;2023-05-07T03:11:24;14.34;81.69
75155;HTU21D;63735;44.730;37.818;2023-05-07T03:13:51;14.35;81.59
75155;HTU21D;63735;44.730;37.818;2023-05-07T03:16:18;14.34;81.66
75155;HTU21D;63735;44.730;37.818;2023-05-07T03:18:45;14.32;81.67
75155;HTU21D;63735;44.730;37.818;2023-05-07T03:21:11;14.29;81.75
75155;HTU21D;63735;44.730;37.818;2023-05-07T03:23:37;14.26;81.78
75155;HTU21D;63735;44.730;37.818;2023-05-07T03:26:03;14.26;81.59
75155;HTU21D;63735;44.730;37.818;2023-05-07T03:28:29;14.29;81.30
75155;HTU21D;63735;44.730;37.818;2023-05-07T03:31:00;14.29;81.21
75155;HTU21D;63735;44.730;37.818;2023-05-07T03:33:26;14.29;81.14
75155;HTU21D;63735;44.730;37.818;2023-05-07T03:35:53;14.29;81.08
75155;HTU21D;63735;44.730;37.818;2023-05-07T03:38:23;14.35;80.98
75155;HTU21D;63735;44.730;37.818;2023-05-07T03:40:49;14.38;80.79
75155;HTU21D;63735;44.730;37.818;2023-05-07T03:43:16;14.40;80.46
75155;HTU21D;63735;44.730;37.818;2023-05-07T03:45:47;14.42;80.17
75155;HTU21D;63735;44.730;37.818;2023-05-07T03:48:18;14.41;80.08
75155;HTU21D;63735;44.730;37.818;2023-05-07T03:50:44;14.41;80.03
75155;HTU21D;63735;44.730;37.818;2023-05-07T03:53:10;14.41;79.98
75155;HTU21D;63735;44.730;37.818;2023-05-07T03:55:38;14.42;79.95
75155;HTU21D;63735;44.730;37.818;2023-05-07T03:58:05;14.41;79.88
75155;HTU21D;63735;44.730;37.818;2023-05-07T04:00:31;14.43;79.80
75155;HTU21D;63735;44.730;37.818;2023-05-07T04:03:07;14.41;79.75
75155;HTU21D;63735;44.730;37.818;2023-05-07T04:05:33;14.42;79.62
75155;HTU21D;63735;44.730;37.818;2023-05-07T04:08:02;14.38;79.65
75155;HTU21D;63735;44.730;37.818;2023-05-07T04:10:37;14.36;79.78
75155;HTU21D;63735;44.730;37.818;2023-05-07T04:13:07;14.34;79.81
75155;HTU21D;63735;44.730;37.818;2023-05-07T04:15:35;14.30;79.81
75155;HTU21D;63735;44.730;37.818;2023-05-07T04:18:01;14.27;79.82
75155;HTU21D;63735;44.730;37.818;2023-05-07T04:20:27;14.26;79.87
75155;HTU21D;63735;44.730;37.818;2023-05-07T04:23:00;14.27;79.81
75155;HTU21D;63735;44.730;37.818;2023-05-07T04:25:26;14.25;79.75
75155;HTU21D;63735;44.730;37.818;2023-05-07T04:27:53;14.24;79.85
75155;HTU21D;63735;44.730;37.818;2023-05-07T04:30:21;14.24;79.82
75155;HTU21D;63735;44.730;37.818;2023-05-07T04:32:47;14.25;79.72
75155;HTU21D;63735;44.730;37.818;2023-05-07T04:35:13;14.23;79.65
75155;HTU21D;63735;44.730;37.818;2023-05-07T04:37:41;14.20;79.73
75155;HTU21D;63735;44.730;37.818;2023-05-07T04:40:07;14.18;79.75
75155;HTU21D;63735;44.730;37.818;2023-05-07T04:42:33;14.20;79.78
75155;HTU21D;63735;44.730;37.818;2023-05-07T04:45:02;14.23;79.80
75155;HTU21D;63735;44.730;37.818;2023-05-07T04:47:30;14.25;79.88
75155;HTU21D;63735;44.730;37.818;2023-05-07T04:49:58;14.29;79.87
75155;HTU21D;63735;44.730;37.818;2023-05-07T04:52:23;14.32;79.90
75155;HTU21D;63735;44.730;37.818;2023-05-07T04:54:50;14.32;79.93
75155;HTU21D;63735;44.730;37.818;2023-05-07T04:57:16;14.33;79.91
75155;HTU21D;63735;44.730;37.818;2023-05-07T04:59:44;14.34;79.91
75155;HTU21D;63735;44.730;37.818;2023-05-07T05:02:10;14.36;79.77
75155;HTU21D;63735;44.730;37.818;2023-05-07T05:04:36;14.40;79.72
75155;HTU21D;63735;44.730;37.818;2023-05-07T05:07:03;14.42;79.70
75155;HTU21D;63735;44.730;37.818;2023-05-07T05:09:30;14.45;79.53
75155;HTU21D;63735;44.730;37.818;2023-05-07T05:11:56;14.50;79.41
75155;HTU21D;63735;44.730;37.818;2023-05-07T05:14:22;14.54;79.28
75155;HTU21D;63735;44.730;37.818;2023-05-07T05:16:50;14.56;79.19
75155;HTU21D;63735;44.730;37.818;2023-05-07T05:19:17;14.56;79.14
75155;HTU21D;63735;44.730;37.818;2023-05-07T05:21:44;14.54;79.30
75155;HTU21D;63735;44.730;37.818;2023-05-07T05:24:11;14.51;79.46
75155;HTU21D;63735;44.730;37.818;2023-05-07T05:26:38;14.48;79.62
75155;HTU21D;63735;44.730;37.818;2023-05-07T05:29:04;14.43;79.74
75155;HTU21D;63735;44.730;37.818;2023-05-07T05:31:31;14.39;79.69
75155;HTU21D;63735;44.730;37.818;2023-05-07T05:33:57;14.36;79.78
75155;HTU21D;63735;44.730;37.818;2023-05-07T05:36:24;14.35;79.77
75155;HTU21D;63735;44.730;37.818;2023-05-07T05:38:53;14.37;79.75
75155;HTU21D;63735;44.730;37.818;2023-05-07T05:41:21;14.41;79.68
75155;HTU21D;63735;44.730;37.818;2023-05-07T05:43:48;14.45;79.59
75155;HTU21D;63735;44.730;37.818;2023-05-07T05:46:14;14.55;79.45
75155;HTU21D;63735;44.730;37.818;2023-05-07T05:48:40;14.65;79.24
75155;HTU21D;63735;44.730;37.818;2023-05-07T05:51:07;14.77;79.00
75155;HTU21D;63735;44.730;37.818;2023-05-07T05:53:33;15.08;78.52
75155;HTU21D;63735;44.730;37.818;2023-05-07T05:55:59;15.42;77.31
75155;HTU21D;63735;44.730;37.818;2023-05-07T05:58:25;15.63;76.39
75155;HTU21D;63735;44.730;37.818;2023-05-07T06:00:57;15.69;76.25
75155;HTU21D;63735;44.730;37.818;2023-05-07T06:03:26;15.71;76.15
75155;HTU21D;63735;44.730;37.818;2023-05-07T06:05:53;15.93;75.73
75155;HTU21D;63735;44.730;37.818;2023-05-07T06:08:21;16.32;74.73
75155;HTU21D;63735;44.730;37.818;2023-05-07T06:10:47;16.58;74.05
75155;HTU21D;63735;44.730;37.818;2023-05-07T06:13:13;16.72;73.12
75155;HTU21D;63735;44.730;37.818;2023-05-07T06:15:40;16.61;72.77
75155;HTU21D;63735;44.730;37.818;2023-05-07T06:18:09;16.35;72.56
75155;HTU21D;63735;44.730;37.818;2023-05-07T06:20:35;16.26;72.96
75155;HTU21D;63735;44.730;37.818;2023-05-07T06:23:04;16.28;72.64
75155;HTU21D;63735;44.730;37.818;2023-05-07T06:25:32;16.20;72.35
75155;HTU21D;63735;44.730;37.818;2023-05-07T06:27:58;16.12;72.30
75155;HTU21D;63735;44.730;37.818;2023-05-07T06:30:25;16.04;72.24
75155;HTU21D;63735;44.730;37.818;2023-05-07T06:32:53;15.96;72.58
75155;HTU21D;63735;44.730;37.818;2023-05-07T06:35:20;15.95;73.05
75155;HTU21D;63735;44.730;37.818;2023-05-07T06:37:46;15.98;72.91
75155;HTU21D;63735;44.730;37.818;2023-05-07T06:40:17;15.96;72.91
75155;HTU21D;63735;44.730;37.818;2023-05-07T06:42:44;15.92;72.83
75155;HTU21D;63735;44.730;37.818;2023-05-07T06:45:29;15.87;73.03
75155;HTU21D;63735;44.730;37.818;2023-05-07T06:47:56;15.84;73.01
75155;HTU21D;63735;44.730;37.818;2023-05-07T06:50:23;15.81;73.20
75155;HTU21D;63735;44.730;37.818;2023-05-07T06:52:53;15.76;73.25
75155;HTU21D;63735;44.730;37.818;2023-05-07T06:55:19;15.76;73.33
75155;HTU21D;63735;44.730;37.818;2023-05-07T06:57:45;15.80;73.35
75155;HTU21D;63735;44.730;37.818;2023-05-07T07:00:12;15.81;73.20
75155;HTU21D;63735;44.730;37.818;2023-05-07T07:02:45;15.86;73.44
75155;HTU21D;63735;44.730;37.818;2023-05-07T07:05:14;15.98;73.33
75155;HTU21D;63735;44.730;37.818;2023-05-07T07:07:40;16.02;73.21
75155;HTU21D;63735;44.730;37.818;2023-05-07T07:10:07;16.04;73.16
75155;HTU21D;63735;44.730;37.818;2023-05-07T07:12:34;16.03;72.87
75155;HTU21D;63735;44.730;37.818;2023-05-07T07:15:00;16.04;72.85
75155;HTU21D;63735;44.730;37.818;2023-05-07T07:17:27;16.03;72.68
75155;HTU21D;63735;44.730;37.818;2023-05-07T07:19:54;15.96;72.83
75155;HTU21D;63735;44.730;37.818;2023-05-07T07:22:20;15.96;72.93
75155;HTU21D;63735;44.730;37.818;2023-05-07T07:24:46;16.02;72.87
75155;HTU21D;63735;44.730;37.818;2023-05-07T07:27:15;16.05;72.69
75155;HTU21D;63735;44.730;37.818;2023-05-07T07:29:41;16.04;72.32
75155;HTU21D;63735;44.730;37.818;2023-05-07T07:32:08;16.02;72.25
75155;HTU21D;63735;44.730;37.818;2023-05-07T07:34:34;16.02;72.33
75155;HTU21D;63735;44.730;37.818;2023-05-07T07:37:01;16.00;72.22
75155;HTU21D;63735;44.730;37.818;2023-05-07T07:39:32;16.02;72.17
75155;HTU21D;63735;44.730;37.818;2023-05-07T07:41:59;16.05;71.96
75155;HTU21D;63735;44.730;37.818;2023-05-07T07:44:28;16.04;71.64
75155;HTU21D;63735;44.730;37.818;2023-05-07T07:46:58;15.95;71.72
75155;HTU21D;63735;44.730;37.818;2023-05-07T07:49:26;15.92;72.07
75155;HTU21D;63735;44.730;37.818;2023-05-07T07:51:54;15.96;72.06
75155;HTU21D;63735;44.730;37.818;2023-05-07T07:54:20;15.96;71.99
75155;HTU21D;63735;44.730;37.818;2023-05-07T07:56:46;15.99;71.93
75155;HTU21D;63735;44.730;37.818;2023-05-07T07:59:13;16.00;71.97
75155;HTU21D;63735;44.730;37.818;2023-05-07T08:01:43;16.00;71.87
75155;HTU21D;63735;44.730;37.818;2023-05-07T08:04:09;16.00;72.00
75155;HTU21D;63735;44.730;37.818;2023-05-07T08:06:39;15.92;72.09
75155;HTU21D;63735;44.730;37.818;2023-05-07T08:09:06;15.93;72.25
75155;HTU21D;63735;44.730;37.818;2023-05-07T08:11:32;15.90;72.15
75155;HTU21D;63735;44.730;37.818;2023-05-07T08:13:58;15.83;72.27
75155;HTU21D;63735;44.730;37.818;2023-05-07T08:16:25;15.77;72.29
75155;HTU21D;63735;44.730;37.818;2023-05-07T08:18:52;15.77;72.42
75155;HTU21D;63735;44.730;37.818;2023-05-07T08:21:18;15.76;72.45
75155;HTU21D;63735;44.730;37.818;2023-05-07T08:23:43;15.80;72.48
75155;HTU21D;63735;44.730;37.818;2023-05-07T08:26:10;15.82;72.51
75155;HTU21D;63735;44.730;37.818;2023-05-07T08:28:36;15.84;72.51
75155;HTU21D;63735;44.730;37.818;2023-05-07T08:31:02;15.87;72.48
75155;HTU21D;63735;44.730;37.818;2023-05-07T08:33:33;15.88;72.42
75155;HTU21D;63735;44.730;37.818;2023-05-07T08:35:59;15.86;72.31
75155;HTU21D;63735;44.730;37.818;2023-05-07T08:38:25;15.82;72.32
75155;HTU21D;63735;44.730;37.818;2023-05-07T08:40:53;15.83;72.49
75155;HTU21D;63735;44.730;37.818;2023-05-07T08:43:22;15.83;72.51
75155;HTU21D;63735;44.730;37.818;2023-05-07T08:45:54;15.81;72.60
75155;HTU21D;63735;44.730;37.818;2023-05-07T08:48:25;15.81;72.62
75155;HTU21D;63735;44.730;37.818;2023-05-07T08:50:59;15.90;72.56
75155;HTU21D;63735;44.730;37.818;2023-05-07T08:53:26;15.96;72.46
75155;HTU21D;63735;44.730;37.818;2023-05-07T08:55:53;16.11;72.39
75155;HTU21D;63735;44.730;37.818;2023-05-07T08:58:20;16.25;72.06
75155;HTU21D;63735;44.730;37.818;2023-05-07T09:00:46;16.41;71.76
75155;HTU21D;63735;44.730;37.818;2023-05-07T09:03:12;16.49;71.45
75155;HTU21D;63735;44.730;37.818;2023-05-07T09:05:43;16.60;71.22
75155;HTU21D;63735;44.730;37.818;2023-05-07T09:08:14;16.70;70.97
75155;HTU21D;63735;44.730;37.818;2023-05-07T09:10:41;16.76;70.77
75155;HTU21D;63735;44.730;37.818;2023-05-07T09:13:08;16.85;70.36
75155;HTU21D;63735;44.730;37.818;2023-05-07T09:15:35;16.86;70.39
75155;HTU21D;63735;44.730;37.818;2023-05-07T09:18:02;16.85;70.26
75155;HTU21D;63735;44.730;37.818;2023-05-07T09:20:32;16.89;70.37
75155;HTU21D;63735;44.730;37.818;2023-05-07T09:22:59;16.99;70.20
75155;HTU21D;63735;44.730;37.818;2023-05-07T09:25:31;17.10;70.03
75155;HTU21D;63735;44.730;37.818;2023-05-07T09:28:04;17.17;69.66
75155;HTU21D;63735;44.730;37.818;2023-05-07T09:30:34;17.30;69.65
75155;HTU21D;63735;44.730;37.818;2023-05-07T09:33:04;17.30;69.38
75155;HTU21D;63735;44.730;37.818;2023-05-07T09:35:32;17.36;69.25
75155;HTU21D;63735;44.730;37.818;2023-05-07T09:38:04;17.35;69.05
75155;HTU21D;63735;44.730;37.818;2023-05-07T09:40:33;17.38;69.13
75155;HTU21D;63735;44.730;37.818;2023-05-07T09:43:13;17.35;68.97
75155;HTU21D;63735;44.730;37.818;2023-05-07T09:45:46;17.31;69.05
75155;HTU21D;63735;44.730;37.818;2023-05-07T09:48:18;17.34;69.04
75155;HTU21D;63735;44.730;37.818;2023-05-07T09:50:49;17.30;69.15
75155;HTU21D;63735;44.730;37.818;2023-05-07T09:53:21;17.32;69.02
75155;HTU21D;63735;44.730;37.818;2023-05-07T09:55:48;17.33;69.19
75155;HTU21D;63735;44.730;37.818;2023-05-07T09:58:14;17.34;68.99
75155;HTU21D;63735;44.730;37.818;2023-05-07T10:00:44;17.34;69.11
75155;HTU21D;63735;44.730;37.818;2023-05-07T10:03:14;17.38;69.05
75155;HTU21D;63735;44.730;37.818;2023-05-07T10:05:55;17.35;69.01
75155;HTU21D;63735;44.730;37.818;2023-05-07T10:08:22;17.28;68.98
75155;HTU21D;63735;44.730;37.818;2023-05-07T10:10:51;17.20;69.11
75155;HTU21D;63735;44.730;37.818;2023-05-07T10:13:22;17.16;69.31
75155;HTU21D;63735;44.730;37.818;2023-05-07T10:15:51;17.09;69.39
75155;HTU21D;63735;44.730;37.818;2023-05-07T10:18:20;17.04;69.71
75155;HTU21D;63735;44.730;37.818;2023-05-07T10:20:52;17.01;69.77
75155;HTU21D;63735;44.730;37.818;2023-05-07T10:23:23;16.93;69.95
75155;HTU21D;63735;44.730;37.818;2023-05-07T10:25:54;16.91;70.02
75155;HTU21D;63735;44.730;37.818;2023-05-07T10:28:24;16.88;70.12
75155;HTU21D;63735;44.730;37.818;2023-05-07T10:33:51;16.80;70.35
75155;HTU21D;63735;44.730;37.818;2023-05-07T10:36:22;16.79;70.66
75155;HTU21D;63735;44.730;37.818;2023-05-07T10:38:51;16.77;70.88
75155;HTU21D;63735;44.730;37.818;2023-05-07T10:41:17;16.77;71.29
75155;HTU21D;63735;44.730;37.818;2023-05-07T10:43:45;16.74;71.42
75155;HTU21D;63735;44.730;37.818;2023-05-07T10:46:20;16.69;71.61
75155;HTU21D;63735;44.730;37.818;2023-05-07T10:52:22;16.65;72.22
75155;HTU21D;63735;44.730;37.818;2023-05-07T10:57:48;16.61;72.27
75155;HTU21D;63735;44.730;37.818;2023-05-07T11:05:30;16.57;72.51
75155;HTU21D;63735;44.730;37.818;2023-05-07T11:08:12;16.59;72.52
75155;HTU21D;63735;44.730;37.818;2023-05-07T11:10:59;16.56;72.58
75155;HTU21D;63735;44.730;37.818;2023-05-07T11:13:46;16.56;72.64
75155;HTU21D;63735;44.730;37.818;2023-05-07T11:16:32;16.55;72.69
75155;HTU21D;63735;44.730;37.818;2023-05-07T11:19:11;16.54;72.71
75155;HTU21D;63735;44.730;37.818;2023-05-07T11:21:42;16.54;72.69
75155;HTU21D;63735;44.730;37.818;2023-05-07T11:24:42;16.50;72.61
75155;HTU21D;63735;44.730;37.818;2023-05-07T11:27:10;16.47;72.69
75155;HTU21D;63735;44.730;37.818;2023-05-07T11:29:36;16.42;72.84
75155;HTU21D;63735;44.730;37.818;2023-05-07T11:32:09;16.43;72.93
75155;HTU21D;63735;44.730;37.818;2023-05-07T11:34:42;16.41;72.90
75155;HTU21D;63735;44.730;37.818;2023-05-07T11:37:09;16.41;73.03
75155;HTU21D;63735;44.730;37.818;2023-05-07T11:40:08;16.42;73.02
75155;HTU21D;63735;44.730;37.818;2023-05-07T11:42:37;16.42;72.95
75155;HTU21D;63735;44.730;37.818;2023-05-07T11:45:04;16.43;73.01
75155;HTU21D;63735;44.730;37.818;2023-05-07T11:47:31;16.46;73.25
75155;HTU21D;63735;44.730;37.818;2023-05-07T11:50:02;16.40;73.33
75155;HTU21D;63735;44.730;37.818;2023-05-07T11:52:29;16.33;73.61
75155;HTU21D;63735;44.730;37.818;2023-05-07T11:54:56;16.31;73.94
75155;HTU21D;63735;44.730;37.818;2023-05-07T11:57:27;16.31;74.17
75155;HTU21D;63735;44.730;37.818;2023-05-07T12:00:01;16.32;74.22
75155;HTU21D;63735;44.730;37.818;2023-05-07T12:02:38;16.28;74.38
75155;HTU21D;63735;44.730;37.818;2023-05-07T12:05:04;16.22;74.54
75155;HTU21D;63735;44.730;37.818;2023-05-07T12:07:30;16.18;74.66
75155;HTU21D;63735;44.730;37.818;2023-05-07T12:09:58;16.17;74.75
75155;HTU21D;63735;44.730;37.818;2023-05-07T12:12:25;16.18;74.70
75155;HTU21D;63735;44.730;37.818;2023-05-07T12:14:52;16.19;74.64
75155;HTU21D;63735;44.730;37.818;2023-05-07T12:17:18;16.20;74.50
75155;HTU21D;63735;44.730;37.818;2023-05-07T12:19:45;16.21;74.47
75155;HTU21D;63735;44.730;37.818;2023-05-07T12:22:12;16.24;74.38
75155;HTU21D;63735;44.730;37.818;2023-05-07T12:24:57;16.24;74.34
75155;HTU21D;63735;44.730;37.818;2023-05-07T12:27:23;16.26;74.31
75155;HTU21D;63735;44.730;37.818;2023-05-07T12:29:50;16.28;74.21
75155;HTU21D;63735;44.730;37.818;2023-05-07T12:32:17;16.32;74.18
75155;HTU21D;63735;44.730;37.818;2023-05-07T12:34:44;16.35;74.10
75155;HTU21D;63735;44.730;37.818;2023-05-07T12:37:11;16.39;73.86
75155;HTU21D;63735;44.730;37.818;2023-05-07T12:39:38;16.40;73.91
75155;HTU21D;63735;44.730;37.818;2023-05-07T12:42:04;16.41;73.87
75155;HTU21D;63735;44.730;37.818;2023-05-07T12:44:32;16.43;73.88
75155;HTU21D;63735;44.730;37.818;2023-05-07T12:47:01;16.46;73.96
75155;HTU21D;63735;44.730;37.818;2023-05-07T12:49:27;16.49;73.94
75155;HTU21D;63735;44.730;37.818;2023-05-07T12:51:53;16.54;73.92
75155;HTU21D;63735;44.730;37.818;2023-05-07T12:57:06;16.63;73.93
75155;HTU21D;63735;44.730;37.818;2023-05-07T12:59:40;16.66;73.81
75155;HTU21D;63735;44.730;37.818;2023-05-07T13:02:06;16.67;73.73
75155;HTU21D;63735;44.730;37.818;2023-05-07T13:04:34;16.75;73.51
75155;HTU21D;63735;44.730;37.818;2023-05-07T13:07:01;16.80;73.37
75155;HTU21D;63735;44.730;37.818;2023-05-07T13:09:27;16.82;73.30
75155;HTU21D;63735;44.730;37.818;2023-05-07T13:11:55;16.86;73.36
75155;HTU21D;63735;44.730;37.818;2023-05-07T13:14:21;16.91;73.44
75155;HTU21D;63735;44.730;37.818;2023-05-07T13:16:47;16.93;73.57
75155;HTU21D;63735;44.730;37.818;2023-05-07T13:19:13;16.98;73.61
75155;HTU21D;63735;44.730;37.818;2023-05-07T13:21:39;16.98;73.55
75155;HTU21D;63735;44.730;37.818;2023-05-07T13:24:05;16.92;73.32
75155;HTU21D;63735;44.730;37.818;2023-05-07T13:26:32;16.84;73.40
75155;HTU21D;63735;44.730;37.818;2023-05-07T13:28:58;16.80;73.45
75155;HTU21D;63735;44.730;37.818;2023-05-07T13:31:24;16.73;73.45
75155;HTU21D;63735;44.730;37.818;2023-05-07T13:33:50;16.64;73.48
75155;HTU21D;63735;44.730;37.818;2023-05-07T13:36:16;16.57;73.49
75155;HTU21D;63735;44.730;37.818;2023-05-07T13:38:42;16.50;73.66
75155;HTU21D;63735;44.730;37.818;2023-05-07T13:41:08;16.46;73.80
75155;HTU21D;63735;44.730;37.818;2023-05-07T13:43:34;16.42;73.96
75155;HTU21D;63735;44.730;37.818;2023-05-07T13:46:00;16.37;74.17
75155;HTU21D;63735;44.730;37.818;2023-05-07T13:48:27;16.33;74.41
75155;HTU21D;63735;44.730;37.818;2023-05-07T13:50:53;16.31;74.67
75155;HTU21D;63735;44.730;37.818;2023-05-07T13:53:19;16.29;74.92
75155;HTU21D;63735;44.730;37.818;2023-05-07T13:55:45;16.28;75.09
75155;HTU21D;63735;44.730;37.818;2023-05-07T13:58:11;16.26;75.26
75155;HTU21D;63735;44.730;37.818;2023-05-07T14:00:37;16.27;75.34
75155;HTU21D;63735;44.730;37.818;2023-05-07T14:03:05;16.28;75.44
75155;HTU21D;63735;44.730;37.818;2023-05-07T14:05:31;16.27;75.51
75155;HTU21D;63735;44.730;37.818;2023-05-07T14:07:58;16.25;75.67
75155;HTU21D;63735;44.730;37.818;2023-05-07T14:10:24;16.24;75.86
75155;HTU21D;63735;44.730;37.818;2023-05-07T14:12:50;16.20;75.97
75155;HTU21D;63735;44.730;37.818;2023-05-07T14:15:16;16.16;76.11
75155;HTU21D;63735;44.730;37.818;2023-05-07T14:17:45;16.15;76.16
75155;HTU21D;63735;44.730;37.818;2023-05-07T14:20:11;16.12;76.27
75155;HTU21D;63735;44.730;37.818;2023-05-07T14:22:37;16.11;76.40
75155;HTU21D;63735;44.730;37.818;2023-05-07T14:25:04;16.10;76.52
75155;HTU21D;63735;44.730;37.818;2023-05-07T14:27:30;16.08;76.53
75155;HTU21D;63735;44.730;37.818;2023-05-07T14:29:56;16.08;76.62
75155;HTU21D;63735;44.730;37.818;2023-05-07T14:32:22;16.05;76.67
75155;HTU21D;63735;44.730;37.818;2023-05-07T14:34:47;16.03;76.74
75155;HTU21D;63735;44.730;37.818;2023-05-07T14:37:15;16.00;76.90
75155;HTU21D;63735;44.730;37.818;2023-05-07T14:39:41;16.00;77.06
75155;HTU21D;63735;44.730;37.818;2023-05-07T14:42:07;15.96;77.34
75155;HTU21D;63735;44.730;37.818;2023-05-07T14:44:36;15.93;77.56
75155;HTU21D;63735;44.730;37.818;2023-05-07T14:47:02;15.90;77.65
75155;HTU21D;63735;44.730;37.818;2023-05-07T14:49:28;15.89;77.79
75155;HTU21D;63735;44.730;37.818;2023-05-07T14:51:57;15.86;77.92
75155;HTU21D;63735;44.730;37.818;2023-05-07T14:54:24;15.84;78.09
75155;HTU21D;63735;44.730;37.818;2023-05-07T14:56:50;15.82;78.27
75155;HTU21D;63735;44.730;37.818;2023-05-07T14:59:17;15.77;78.43
75155;HTU21D;63735;44.730;37.818;2023-05-07T15:01:49;15.74;78.58
75155;HTU21D;63735;44.730;37.818;2023-05-07T15:04:15;15.72;78.74
75155;HTU21D;63735;44.730;37.818;2023-05-07T15:06:42;15.73;78.93
75155;HTU21D;63735;44.730;37.818;2023-05-07T15:09:07;15.68;79.08
75155;HTU21D;63735;44.730;37.818;2023-05-07T15:11:34;15.66;79.24
75155;HTU21D;63735;44.730;37.818;2023-05-07T15:14:01;15.65;79.30
75155;HTU21D;63735;44.730;37.818;2023-05-07T15:16:27;15.60;79.52
75155;HTU21D;63735;44.730;37.818;2023-05-07T15:18:53;15.57;79.65
75155;HTU21D;63735;44.730;37.818;2023-05-07T15:21:19;15.53;79.91
75155;HTU21D;63735;44.730;37.818;2023-05-07T15:23:45;15.49;80.09